Portada
METAR-TAF:

METAR-TAF

Aeropuertos :

Hoonah, Alaska, Estados Unidos

latitud: 58-07N, longitud: 135-27W, altitud: 0 m

Observación

El informe se hizo hace 1 hora y 3 minutos, a las 21:56 UTC
Viento 14 kt del este con ráfagas de 23 kt
Temperatura -2°C
Humedad 69%
Presión 1009 hPa
Visibilidad: 16.1 km
Cielo nuboso a una altura de 4000 ft
Cielo nuboso a una altura de 4700 ft
Cielo cubierto a una altura de 10000 ft

METAR: PAOH 202156Z AUTO 10014G23KT 10SM BKN040 BKN047 OVC100 M02/M07 A2979 RMK AO2 SLP090 T10221072 FZRANO

Hora: 13:59 (22:59 UTC)


TAF: falta

Observaciones y pronósticos meteorológicos de más de 4000 aeropuertos (mensajes METAR y TAF).

Los puntos amarillos y rojos representan las estaciones disponibles.

Ponga el ratón en el punto deseado para ver el nombre de la estación.

Haga clic para ver las observaciones y los pronósticos meteorológicos.

Para cambiar el mapa : haga clic en los botones verdes con una cruz de color negro para hacer un zoom, en el botón verde con un guión para alejar o en las flechas verdes para mapas adyacentes.


METAR-TAF: